Time;durP1;ratioP1;P1;durP2;ratioP2;P2;SDS_P1;SDS_P2;PMS_P1;PMS_P2;Temp;Humidity;BMP_temperature;BMP_pressure;BME280_temperature;BME280_humidity;BME280_pressure;Samples;Min_cycle;Max_cycle;Signal;HPM_P1;HPM_P2
2021/08/27 00:00:03;;;;;;;8.75;4.18;;;13.50;99.90;;;;;;4883834;28;20204;-80
2021/08/27 00:03:15;;;;;;;9.25;3.95;;;13.40;99.90;;;;;;4881499;29;20047;-81
2021/08/27 00:09:27;;;;;;;10.25;4.55;;;13.30;99.90;;;;;;4918834;29;20048;-81
2021/08/27 00:11:54;;;;;;;11.48;4.53;;;13.20;99.90;;;;;;4954982;23;20050;-77
2021/08/27 00:14:21;;;;;;;12.10;5.03;;;13.30;99.90;;;;;;4965548;28;20130;-78
2021/08/27 00:16:48;;;;;;;13.65;5.43;;;13.30;99.90;;;;;;4977111;28;20086;-79
2021/08/27 00:19:15;;;;;;;13.98;5.90;;;13.30;99.90;;;;;;4971012;28;20057;-76
2021/08/27 00:21:43;;;;;;;12.48;6.53;;;13.40;99.90;;;;;;4954607;29;20516;-79
2021/08/27 00:24:10;;;;;;;15.32;6.53;;;13.40;99.90;;;;;;4957050;29;20093;-79
2021/08/27 00:26:37;;;;;;;9.43;5.82;;;13.50;99.90;;;;;;4956439;28;20065;-76
2021/08/27 00:29:04;;;;;;;9.60;6.30;;;13.50;99.90;;;;;;4956672;29;20503;-79
2021/08/27 00:31:32;;;;;;;10.13;6.45;;;13.50;99.90;;;;;;4960015;28;20064;-79
2021/08/27 00:33:59;;;;;;;13.60;5.93;;;13.60;99.90;;;;;;4976828;28;20130;-80
2021/08/27 00:36:26;;;;;;;9.80;5.72;;;13.60;99.90;;;;;;4976631;28;20111;-79
2021/08/27 00:38:54;;;;;;;11.27;5.72;;;13.70;99.90;;;;;;4976416;28;20070;-81
2021/08/27 00:41:22;;;;;;;18.00;6.50;;;13.70;99.90;;;;;;4976258;28;20134;-80
2021/08/27 00:43:48;;;;;;;20.02;8.00;;;13.70;99.90;;;;;;4977371;28;20065;-77
2021/08/27 00:46:15;;;;;;;14.18;7.70;;;13.70;99.90;;;;;;4976855;28;20598;-79
2021/08/27 00:48:42;;;;;;;15.85;7.82;;;13.70;99.90;;;;;;4979808;28;20125;-80
2021/08/27 00:51:09;;;;;;;15.68;8.23;;;13.70;99.90;;;;;;4977545;28;20137;-79
2021/08/27 00:53:36;;;;;;;16.92;8.82;;;13.80;99.90;;;;;;4975797;28;20134;-79
2021/08/27 00:56:05;;;;;;;17.30;8.45;;;13.80;99.90;;;;;;4975116;28;20122;-79
2021/08/27 00:58:32;;;;;;;19.63;8.68;;;13.80;99.90;;;;;;4979574;28;20054;-80
2021/08/27 01:00:59;;;;;;;14.77;7.40;;;13.80;99.90;;;;;;4980215;28;20047;-79
2021/08/27 01:03:26;;;;;;;22.63;8.45;;;13.80;99.90;;;;;;4976456;28;20545;-79
2021/08/27 01:06:04;;;;;;;12.80;7.50;;;13.90;99.90;;;;;;4978814;28;20093;-80
2021/08/27 01:08:36;;;;;;;12.95;7.15;;;13.90;99.90;;;;;;4980574;28;20134;-81
2021/08/27 01:11:12;;;;;;;17.83;7.85;;;13.90;99.90;;;;;;4981527;28;20050;-80
2021/08/27 01:13:46;;;;;;;16.63;7.53;;;13.90;99.90;;;;;;4983814;28;20078;-80
2021/08/27 01:16:18;;;;;;;12.90;6.38;;;13.90;99.90;;;;;;4975959;28;20082;-77
2021/08/27 01:18:51;;;;;;;14.20;6.88;;;14.00;99.90;;;;;;4975753;28;20046;-77
2021/08/27 01:21:39;;;;;;;13.50;6.38;;;14.00;99.90;;;;;;4974072;28;20121;-78
2021/08/27 01:24:09;;;;;;;11.88;6.45;;;13.90;99.90;;;;;;4974338;28;20426;-78
2021/08/27 01:26:42;;;;;;;13.77;6.13;;;14.00;99.90;;;;;;4974324;28;20059;-79
2021/08/27 01:29:09;;;;;;;;;;;13.90;99.90;;;;;;4974932;28;20515;-78
2021/08/27 01:31:43;;;;;;;11.10;5.78;;;13.90;99.90;;;;;;4973126;28;19932;-79
2021/08/27 01:34:27;;;;;;;11.18;5.93;;;13.90;99.90;;;;;;4972309;28;20046;-81
2021/08/27 01:36:55;;;;;;;16.75;6.28;;;13.90;99.90;;;;;;4972684;28;20574;-78
2021/08/27 01:39:25;;;;;;;16.85;6.30;;;13.90;99.90;;;;;;4973247;28;20421;-77
2021/08/27 01:41:54;;;;;;;12.27;5.65;;;13.80;99.90;;;;;;4973221;28;20051;-77
2021/08/27 01:44:24;;;;;;;13.82;5.10;;;13.80;99.90;;;;;;4973237;28;20463;-78
2021/08/27 01:46:55;;;;;;;10.52;4.60;;;13.70;99.90;;;;;;4973333;28;20426;-78
2021/08/27 01:49:25;;;;;;;9.05;4.80;;;13.70;99.90;;;;;;4974220;28;20133;-77
2021/08/27 01:51:52;;;;;;;9.93;4.88;;;13.60;99.90;;;;;;4972865;28;20051;-77
2021/08/27 01:54:20;;;;;;;12.55;4.40;;;13.60;99.90;;;;;;4972438;28;20138;-77
2021/08/27 01:56:47;;;;;;;9.60;4.43;;;13.50;99.90;;;;;;4973033;28;20473;-78
2021/08/27 01:59:15;;;;;;;11.45;4.45;;;13.40;99.90;;;;;;4972683;28;20133;-77
2021/08/27 02:01:42;;;;;;;11.52;4.45;;;13.40;99.90;;;;;;4972920;28;20133;-78
2021/08/27 02:04:11;;;;;;;10.65;5.38;;;13.40;99.90;;;;;;4974208;28;20141;-79
2021/08/27 02:06:40;;;;;;;13.63;5.28;;;13.30;99.90;;;;;;4973811;28;20101;-80
2021/08/27 02:09:09;;;;;;;9.98;4.13;;;13.40;99.90;;;;;;4973441;28;20049;-78
2021/08/27 02:11:37;;;;;;;8.95;3.75;;;13.30;99.90;;;;;;4972903;28;20216;-78
2021/08/27 02:14:04;;;;;;;10.65;3.92;;;13.30;99.90;;;;;;4973204;28;20470;-79
2021/08/27 02:16:31;;;;;;;11.15;3.95;;;13.30;99.90;;;;;;4973648;28;20053;-78
2021/08/27 02:18:59;;;;;;;12.32;3.97;;;13.30;99.90;;;;;;4972971;28;20086;-77
2021/08/27 02:21:32;;;;;;;12.38;4.85;;;13.30;99.90;;;;;;4972508;28;20133;-78
2021/08/27 02:24:03;;;;;;;13.68;4.43;;;13.30;99.90;;;;;;4972676;28;20137;-77
2021/08/27 02:26:32;;;;;;;9.35;4.97;;;13.30;99.90;;;;;;4972212;28;20149;-78
2021/08/27 02:29:00;;;;;;;11.43;5.15;;;13.30;99.90;;;;;;4971937;28;20050;-78
2021/08/27 02:31:29;;;;;;;11.45;5.78;;;13.30;99.90;;;;;;4972398;28;20570;-77
2021/08/27 02:33:57;;;;;;;15.13;5.68;;;13.40;99.90;;;;;;4973931;28;20057;-78
2021/08/27 02:36:25;;;;;;;17.08;6.15;;;13.30;99.90;;;;;;4976037;28;20042;-79
2021/08/27 02:38:53;;;;;;;16.55;6.18;;;13.30;99.90;;;;;;4975880;28;20476;-78
2021/08/27 02:41:22;;;;;;;19.23;6.50;;;13.30;99.90;;;;;;4976307;28;20057;-77
2021/08/27 02:43:49;;;;;;;11.50;6.18;;;13.30;99.90;;;;;;4976310;28;20057;-78
2021/08/27 02:46:16;;;;;;;12.70;6.50;;;13.30;99.90;;;;;;4975361;28;20171;-78
2021/08/27 02:48:42;;;;;;;20.60;6.25;;;13.40;99.90;;;;;;4975714;28;20129;-81
2021/08/27 02:51:14;;;;;;;12.00;5.72;;;13.40;99.90;;;;;;4975826;28;20418;-79
2021/08/27 02:53:45;;;;;;;11.68;5.53;;;13.50;99.90;;;;;;4976116;28;20068;-79
2021/08/27 02:56:18;;;;;;;14.68;6.40;;;13.50;99.90;;;;;;4975226;28;20145;-77
2021/08/27 02:58:49;;;;;;;11.68;5.60;;;13.50;99.90;;;;;;4975586;28;20046;-78
2021/08/27 03:01:24;;;;;;;10.57;5.70;;;13.50;99.90;;;;;;4976422;28;20051;-78
2021/08/27 03:04:06;;;;;;;15.10;5.88;;;13.60;99.90;;;;;;4975727;28;20105;-76
2021/08/27 03:06:40;;;;;;;13.93;5.30;;;13.60;99.90;;;;;;4975022;28;20085;-76
2021/08/27 03:09:10;;;;;;;14.25;5.60;;;13.60;99.90;;;;;;4974782;28;20043;-78
2021/08/27 03:11:41;;;;;;;14.98;5.18;;;13.60;99.90;;;;;;4974507;28;20130;-78
2021/08/27 03:14:15;;;;;;;9.32;4.38;;;13.70;99.90;;;;;;4974996;28;20149;-78
2021/08/27 03:16:46;;;;;;;11.68;5.25;;;13.70;99.90;;;;;;4975125;28;20426;-78
2021/08/27 03:19:20;;;;;;;15.35;4.95;;;13.80;99.90;;;;;;4975036;28;20051;-78
2021/08/27 03:21:52;;;;;;;12.00;4.95;;;13.80;99.90;;;;;;4975117;28;20145;-78
2021/08/27 03:24:23;;;;;;;19.83;5.50;;;13.80;99.90;;;;;;4974928;28;20090;-78
2021/08/27 03:26:56;;;;;;;12.50;5.55;;;13.80;99.90;;;;;;4974786;28;20084;-78
2021/08/27 03:29:28;;;;;;;18.60;6.35;;;13.70;99.90;;;;;;4974824;28;20053;-77
2021/08/27 03:31:55;;;;;;;16.40;7.30;;;13.80;99.90;;;;;;4974729;28;20134;-77
2021/08/27 03:34:24;;;;;;;18.05;7.05;;;13.80;99.90;;;;;;4974453;28;20138;-78
2021/08/27 03:36:51;;;;;;;13.70;5.88;;;13.80;99.90;;;;;;4974717;28;20183;-78
2021/08/27 03:39:20;;;;;;;13.25;6.57;;;13.80;99.90;;;;;;4975187;28;20125;-79
2021/08/27 03:41:48;;;;;;;16.45;6.35;;;13.80;99.90;;;;;;4975135;28;20129;-78
2021/08/27 03:44:17;;;;;;;13.52;6.13;;;13.80;99.90;;;;;;4974047;28;20058;-78
2021/08/27 03:46:46;;;;;;;18.20;6.28;;;13.90;99.90;;;;;;4974776;28;20430;-78
2021/08/27 03:49:15;;;;;;;15.65;6.53;;;13.90;99.90;;;;;;4974712;28;20138;-79
2021/08/27 03:51:43;;;;;;;15.25;6.20;;;13.80;99.90;;;;;;4974504;28;20051;-78
2021/08/27 03:54:10;;;;;;;14.82;6.57;;;13.90;99.90;;;;;;4974142;28;20055;-79
2021/08/27 03:56:37;;;;;;;13.63;6.30;;;13.90;99.90;;;;;;4974416;28;20134;-79
2021/08/27 03:59:05;;;;;;;16.80;6.38;;;13.90;99.90;;;;;;4974628;28;20057;-79
2021/08/27 04:01:34;;;;;;;17.50;6.63;;;13.90;99.90;;;;;;4974520;28;20056;-78
2021/08/27 04:04:02;;;;;;;14.77;5.70;;;13.90;99.90;;;;;;4974405;28;20142;-78
2021/08/27 04:06:29;;;;;;;13.48;5.85;;;13.90;99.90;;;;;;4974073;28;20490;-79
2021/08/27 04:08:56;;;;;;;14.05;5.85;;;13.90;99.90;;;;;;4973921;28;20599;-78
2021/08/27 04:11:23;;;;;;;19.33;6.10;;;13.90;99.90;;;;;;4974245;28;20149;-77
2021/08/27 04:13:50;;;;;;;13.43;5.70;;;13.90;99.90;;;;;;4974408;28;20133;-79
2021/08/27 04:16:17;;;;;;;10.77;5.35;;;13.90;99.90;;;;;;4973753;28;20047;-78
2021/08/27 04:18:43;;;;;;;10.13;5.65;;;13.90;99.90;;;;;;4973911;28;20049;-76
2021/08/27 04:21:12;;;;;;;15.57;5.47;;;13.90;99.90;;;;;;4973978;28;20085;-78
2021/08/27 04:23:39;;;;;;;14.18;5.53;;;13.90;99.90;;;;;;4973758;28;20085;-78
2021/08/27 04:26:05;;;;;;;13.40;5.40;;;14.00;99.90;;;;;;4973435;28;20047;-77
2021/08/27 04:28:32;;;;;;;10.95;5.05;;;14.00;99.90;;;;;;4973911;28;20134;-78
2021/08/27 04:30:59;;;;;;;10.43;4.93;;;14.00;99.90;;;;;;4973647;28;20129;-78
2021/08/27 04:33:26;;;;;;;14.38;5.40;;;14.00;99.90;;;;;;4974516;28;20128;-79
2021/08/27 04:35:53;;;;;;;15.00;5.60;;;14.00;99.90;;;;;;4973967;28;20579;-79
2021/08/27 04:38:21;;;;;;;12.60;5.70;;;13.90;99.90;;;;;;4974384;28;20057;-79
2021/08/27 04:40:48;;;;;;;13.57;6.53;;;13.90;99.90;;;;;;4975693;28;20046;-79
2021/08/27 04:43:15;;;;;;;12.75;6.28;;;13.90;99.90;;;;;;4977296;28;20110;-79
2021/08/27 04:45:42;;;;;;;12.48;5.28;;;13.90;99.90;;;;;;4976536;28;20078;-79
2021/08/27 04:48:09;;;;;;;12.95;5.50;;;13.90;99.90;;;;;;4975655;28;20190;-79
2021/08/27 04:50:38;;;;;;;10.80;5.00;;;13.90;99.90;;;;;;4974635;28;20279;-77
2021/08/27 04:53:05;;;;;;;13.85;5.38;;;13.90;99.90;;;;;;4974988;28;20053;-78
2021/08/27 04:55:34;;;;;;;15.30;5.30;;;13.90;99.90;;;;;;4974261;28;20053;-77
2021/08/27 04:58:00;;;;;;;12.38;5.07;;;13.90;99.90;;;;;;4974259;28;20480;-79
2021/08/27 05:00:27;;;;;;;14.85;5.63;;;13.90;99.90;;;;;;4974477;28;20517;-78
2021/08/27 05:02:54;;;;;;;10.75;5.13;;;14.00;99.90;;;;;;4974833;28;20050;-78
2021/08/27 05:05:21;;;;;;;11.60;6.00;;;14.00;99.90;;;;;;4976789;28;20053;-77
2021/08/27 05:07:48;;;;;;;19.73;6.18;;;14.00;99.90;;;;;;4974465;28;20089;-76
2021/08/27 05:10:15;;;;;;;13.85;5.43;;;14.00;99.90;;;;;;4973157;28;20129;-76
2021/08/27 05:12:43;;;;;;;12.32;5.20;;;14.00;99.90;;;;;;4973225;28;20142;-76
2021/08/27 05:15:11;;;;;;;16.75;6.10;;;14.10;99.90;;;;;;4972313;28;20138;-77
2021/08/27 05:17:39;;;;;;;12.90;6.10;;;14.10;99.90;;;;;;4972991;28;20055;-79
2021/08/27 05:20:07;;;;;;;13.45;5.97;;;14.10;99.90;;;;;;4973350;28;20051;-77
2021/08/27 05:22:34;;;;;;;13.40;6.43;;;14.00;99.90;;;;;;4969666;28;20051;-78
2021/08/27 05:25:01;;;;;;;12.88;6.32;;;14.10;99.90;;;;;;4958262;28;20146;-77
2021/08/27 05:27:28;;;;;;;12.07;5.60;;;14.10;99.90;;;;;;4953522;28;20130;-77
2021/08/27 05:29:56;;;;;;;12.13;5.72;;;14.10;99.90;;;;;;4953671;29;20451;-78
2021/08/27 05:32:24;;;;;;;11.65;5.07;;;14.20;99.90;;;;;;4967194;28;20588;-75
2021/08/27 05:34:51;;;;;;;14.20;5.50;;;14.20;99.90;;;;;;4965240;28;20126;-78
2021/08/27 05:37:18;;;;;;;13.82;5.50;;;14.20;99.90;;;;;;4961505;28;20525;-76
2021/08/27 05:39:45;;;;;;;12.13;5.97;;;14.20;99.90;;;;;;4963566;28;20046;-79
2021/08/27 05:42:12;;;;;;;9.13;5.80;;;14.30;99.90;;;;;;4961662;28;20047;-77
2021/08/27 05:44:39;;;;;;;12.93;5.50;;;14.30;99.90;;;;;;4961069;28;20130;-76
2021/08/27 05:47:07;;;;;;;11.50;5.53;;;14.30;99.90;;;;;;4960619;28;20054;-76
2021/08/27 05:49:35;;;;;;;11.65;5.35;;;14.30;99.90;;;;;;4970364;28;20494;-76
2021/08/27 05:52:02;;;;;;;10.50;4.90;;;14.30;99.90;;;;;;4972690;28;20124;-78
2021/08/27 05:54:29;;;;;;;10.35;5.22;;;14.30;99.90;;;;;;4972421;28;20130;-76
2021/08/27 05:56:56;;;;;;;12.77;5.20;;;14.30;99.90;;;;;;4972189;28;20085;-76
2021/08/27 05:59:23;;;;;;;11.55;5.57;;;14.40;99.90;;;;;;4971786;28;20078;-76
2021/08/27 06:01:50;;;;;;;10.77;4.68;;;14.40;99.90;;;;;;4972116;28;20047;-78
2021/08/27 06:04:18;;;;;;;13.45;4.53;;;14.40;99.90;;;;;;4971784;28;20105;-76
2021/08/27 06:06:48;;;;;;;8.98;4.88;;;14.40;99.90;;;;;;4972791;28;20130;-75
2021/08/27 06:09:15;;;;;;;14.10;4.93;;;14.40;99.90;;;;;;4977074;28;20047;-76
2021/08/27 06:11:42;;;;;;;12.45;5.25;;;14.50;99.90;;;;;;4971632;28;20051;-76
2021/08/27 06:14:09;;;;;;;12.50;5.32;;;14.50;99.90;;;;;;5009273;23;20112;-82
2021/08/27 06:16:36;;;;;;;13.00;4.57;;;14.60;99.90;;;;;;5014605;28;20070;-81
2021/08/27 06:19:15;;;;;;;13.05;5.57;;;14.60;99.90;;;;;;5005478;28;20569;-81
2021/08/27 06:21:43;;;;;;;11.25;5.10;;;14.80;99.90;;;;;;5012266;28;20053;-80
2021/08/27 06:24:15;;;;;;;10.57;4.85;;;15.00;99.90;;;;;;5016681;28;20509;-82
2021/08/27 06:27:13;;;;;;;9.18;4.80;;;15.20;99.90;;;;;;5031690;28;20054;-81
2021/08/27 06:29:46;;;;;;;9.50;3.97;;;15.30;99.90;;;;;;5034618;28;20100;-81
2021/08/27 06:32:14;;;;;;;12.60;4.78;;;15.30;99.90;;;;;;5034157;28;20065;-82
2021/08/27 06:34:40;;;;;;;12.10;4.65;;;15.20;99.90;;;;;;5031117;28;20054;-82
2021/08/27 06:37:09;;;;;;;8.95;4.60;;;15.20;99.90;;;;;;5031122;28;20073;-83
2021/08/27 06:39:36;;;;;;;10.38;4.85;;;15.20;99.90;;;;;;5026836;28;20125;-83
2021/08/27 06:42:04;;;;;;;11.15;4.85;;;15.10;99.90;;;;;;5024946;28;20096;-83
2021/08/27 06:44:31;;;;;;;11.02;4.93;;;15.10;99.90;;;;;;5026228;28;20298;-80
2021/08/27 06:46:58;;;;;;;11.05;4.43;;;15.10;99.90;;;;;;5026505;28;20050;-81
2021/08/27 06:49:25;;;;;;;10.77;4.75;;;15.10;99.90;;;;;;5029050;28;20057;-82
2021/08/27 06:51:52;;;;;;;9.05;4.78;;;15.20;99.90;;;;;;5034492;28;20050;-81
2021/08/27 06:54:20;;;;;;;12.40;4.78;;;15.20;99.90;;;;;;5030332;28;20088;-81
2021/08/27 06:56:47;;;;;;;13.02;4.72;;;15.30;99.90;;;;;;5026651;28;20081;-81
2021/08/27 06:59:15;;;;;;;9.52;4.60;;;15.30;99.90;;;;;;5029185;28;20085;-81
2021/08/27 07:01:42;;;;;;;15.10;5.35;;;15.20;99.90;;;;;;5028539;28;20050;-82
2021/08/27 07:04:09;;;;;;;11.95;4.80;;;15.20;99.90;;;;;;5028771;28;20057;-80
2021/08/27 07:06:36;;;;;;;12.90;4.40;;;15.20;99.90;;;;;;5023819;28;20490;-82
2021/08/27 07:09:03;;;;;;;9.40;4.90;;;15.20;99.90;;;;;;5025701;28;20515;-82
2021/08/27 07:11:31;;;;;;;8.20;4.38;;;15.30;99.90;;;;;;5026204;28;20054;-83
2021/08/27 07:13:58;;;;;;;10.63;4.80;;;15.40;99.90;;;;;;5025197;28;20140;-83
2021/08/27 07:16:25;;;;;;;11.77;4.50;;;15.50;99.90;;;;;;5026975;28;20057;-82
2021/08/27 07:18:51;;;;;;;11.07;4.50;;;15.50;99.90;;;;;;5026648;28;20059;-81
2021/08/27 07:21:18;;;;;;;11.45;5.53;;;15.60;99.90;;;;;;5026941;28;20050;-83
2021/08/27 07:23:46;;;;;;;10.73;4.70;;;15.70;99.90;;;;;;5030110;28;20073;-81
2021/08/27 07:26:13;;;;;;;12.15;4.85;;;15.70;99.90;;;;;;5028424;28;20054;-82
2021/08/27 07:28:41;;;;;;;8.02;4.03;;;15.70;99.90;;;;;;5029761;28;20088;-82
2021/08/27 07:31:08;;;;;;;16.50;4.88;;;15.80;99.90;;;;;;5029203;28;20050;-83
2021/08/27 07:33:35;;;;;;;15.75;5.38;;;15.80;99.90;;;;;;5029160;28;20049;-83
2021/08/27 07:36:01;;;;;;;11.77;4.82;;;15.80;99.90;;;;;;5027356;28;20054;-82
2021/08/27 07:38:28;;;;;;;13.50;4.38;;;15.90;99.90;;;;;;5025849;28;20054;-82
2021/08/27 07:40:55;;;;;;;11.05;5.03;;;15.80;99.90;;;;;;5022393;28;20077;-84
2021/08/27 07:43:22;;;;;;;15.85;4.60;;;15.90;99.90;;;;;;5023452;28;20152;-84
2021/08/27 07:45:56;;;;;;;13.50;4.85;;;15.90;99.90;;;;;;5023868;28;20132;-82
2021/08/27 07:48:24;;;;;;;10.25;4.93;;;15.80;99.90;;;;;;5026854;28;20085;-82
2021/08/27 07:50:51;;;;;;;15.30;4.47;;;15.90;99.90;;;;;;5029372;28;20050;-81
2021/08/27 07:53:19;;;;;;;10.00;4.72;;;15.90;99.90;;;;;;5027542;28;20069;-84
2021/08/27 07:55:48;;;;;;;11.38;4.43;;;15.90;99.90;;;;;;5025638;28;20418;-84
2021/08/27 07:58:14;;;;;;;8.80;4.10;;;15.90;99.90;;;;;;5028093;28;20045;-82
2021/08/27 08:00:41;;;;;;;8.60;4.45;;;15.90;99.90;;;;;;5026502;28;20108;-85
2021/08/27 08:03:10;;;;;;;11.68;5.13;;;15.90;99.90;;;;;;5035256;28;20040;-81
2021/08/27 08:05:36;;;;;;;11.30;4.28;;;16.00;99.90;;;;;;5034524;28;20061;-84
2021/08/27 08:08:04;;;;;;;11.10;4.47;;;15.90;99.90;;;;;;5025188;28;20046;-82
2021/08/27 08:10:33;;;;;;;12.70;4.72;;;16.00;99.90;;;;;;5023871;28;20114;-84
2021/08/27 08:13:00;;;;;;;11.65;4.18;;;16.00;99.90;;;;;;5023014;28;20045;-84
2021/08/27 08:15:28;;;;;;;10.60;4.40;;;16.10;99.90;;;;;;5022253;28;20136;-86
2021/08/27 08:17:55;;;;;;;8.82;4.00;;;16.20;99.90;;;;;;5024598;28;20078;-86
2021/08/27 08:20:24;;;;;;;10.25;4.25;;;16.30;99.90;;;;;;5024150;28;20105;-85
2021/08/27 08:22:50;;;;;;;9.95;5.13;;;16.40;99.90;;;;;;5023878;28;20049;-86
2021/08/27 08:25:18;;;;;;;8.45;4.13;;;16.60;99.90;;;;;;5023517;28;20462;-84
2021/08/27 08:27:45;;;;;;;10.23;4.45;;;16.70;99.90;;;;;;5025730;28;20084;-82
2021/08/27 08:30:14;;;;;;;13.05;3.92;;;16.70;99.90;;;;;;5027004;28;20061;-83
2021/08/27 08:32:41;;;;;;;8.38;3.42;;;16.70;99.90;;;;;;5024377;28;20133;-85
2021/08/27 08:35:09;;;;;;;10.05;3.90;;;16.70;99.90;;;;;;5020424;28;20117;-85
2021/08/27 08:37:41;;;;;;;7.32;4.20;;;16.70;99.90;;;;;;5016123;28;20112;-85
2021/08/27 08:40:10;;;;;;;11.70;4.40;;;16.80;99.90;;;;;;5016520;28;20054;-84
2021/08/27 08:42:37;;;;;;;7.60;3.97;;;16.80;99.90;;;;;;5017830;28;20046;-85
2021/08/27 08:45:04;;;;;;;9.50;3.92;;;16.90;99.90;;;;;;5018114;28;20109;-83
2021/08/27 08:47:32;;;;;;;8.32;3.83;;;17.00;99.90;;;;;;5018006;28;20119;-84
2021/08/27 08:50:00;;;;;;;8.65;3.78;;;17.10;99.90;;;;;;5018969;28;20518;-85
2021/08/27 08:52:28;;;;;;;9.88;4.30;;;17.00;99.90;;;;;;5021112;28;20202;-84
2021/08/27 08:54:56;;;;;;;10.13;4.60;;;17.10;99.90;;;;;;5020635;28;20054;-82
2021/08/27 08:57:23;;;;;;;8.93;4.55;;;17.20;99.90;;;;;;5019912;28;20510;-83
2021/08/27 08:59:53;;;;;;;6.35;3.78;;;17.40;99.90;;;;;;5020206;28;20134;-83
2021/08/27 09:02:21;;;;;;;7.40;3.88;;;17.50;99.90;;;;;;5019424;28;20050;-83
2021/08/27 09:04:47;;;;;;;11.98;4.30;;;17.60;99.90;;;;;;5020283;28;20046;-86
2021/08/27 09:07:17;;;;;;;8.77;4.22;;;17.80;99.90;;;;;;5022976;28;20521;-86
2021/08/27 09:10:05;;;;;;;9.88;3.65;;;18.30;99.90;;;;;;5018155;28;20303;-84
2021/08/27 09:12:34;;;;;;;7.10;3.55;;;18.80;99.90;;;;;;5022238;28;20553;-81
2021/08/27 09:15:03;;;;;;;9.57;3.97;;;19.10;99.90;;;;;;5023288;28;20084;-82
2021/08/27 09:17:33;;;;;;;9.77;3.40;;;19.20;99.90;;;;;;5025364;28;20058;-83
2021/08/27 09:20:02;;;;;;;6.25;3.78;;;19.70;99.90;;;;;;5025088;28;20069;-82
2021/08/27 09:22:44;;;;;;;8.02;3.45;;;19.90;99.90;;;;;;5022682;28;20049;-82
2021/08/27 09:25:13;;;;;;;7.38;3.63;;;19.50;99.90;;;;;;5022645;28;20061;-83
2021/08/27 09:28:08;;;;;;;8.02;3.80;;;19.20;99.90;;;;;;5022861;28;20237;-83
2021/08/27 09:30:38;;;;;;;8.65;3.55;;;18.80;99.90;;;;;;5022508;28;20072;-83
2021/08/27 09:33:14;;;;;;;8.70;3.80;;;18.60;99.90;;;;;;5024711;28;20077;-83
2021/08/27 09:35:53;;;;;;;10.73;3.78;;;18.30;99.90;;;;;;5031591;28;20054;-83
2021/08/27 09:38:20;;;;;;;9.43;3.90;;;18.10;99.90;;;;;;5031408;28;20227;-83
2021/08/27 09:40:59;;;;;;;7.60;3.83;;;17.80;99.90;;;;;;5030412;28;20070;-83
2021/08/27 09:43:26;;;;;;;7.60;3.80;;;17.70;99.90;;;;;;5019658;28;20081;-84
2021/08/27 09:45:53;;;;;;;6.80;3.72;;;17.60;99.90;;;;;;5021095;28;20054;-83
2021/08/27 09:48:20;;;;;;;8.85;3.80;;;17.60;99.90;;;;;;5020349;28;20057;-82
2021/08/27 09:50:50;;;;;;;8.02;3.70;;;17.60;99.90;;;;;;5021062;28;20050;-82
2021/08/27 09:53:18;;;;;;;9.38;3.72;;;17.60;99.90;;;;;;5021378;28;20109;-82
2021/08/27 09:55:57;;;;;;;9.07;4.60;;;17.60;99.90;;;;;;5021518;28;20050;-83
2021/08/27 09:58:24;;;;;;;8.15;4.07;;;17.60;99.90;;;;;;5021613;28;20092;-83
2021/08/27 10:01:01;;;;;;;6.72;3.40;;;17.90;99.90;;;;;;5025830;28;20046;-83
2021/08/27 10:03:28;;;;;;;8.02;3.63;;;18.20;99.90;;;;;;5025645;28;20110;-82
2021/08/27 10:05:55;;;;;;;7.00;3.40;;;18.50;99.90;;;;;;5024534;28;20046;-83
2021/08/27 10:08:24;;;;;;;6.00;3.00;;;18.70;99.90;;;;;;5023469;28;20137;-82
2021/08/27 10:10:53;;;;;;;8.75;3.25;;;18.60;99.90;;;;;;5024535;28;20519;-83
2021/08/27 10:13:25;;;;;;;7.88;3.30;;;18.50;99.90;;;;;;5024023;28;20109;-83
2021/08/27 10:15:53;;;;;;;8.02;3.28;;;18.40;99.90;;;;;;5023614;28;20049;-82
2021/08/27 10:18:20;;;;;;;7.93;3.70;;;18.30;99.90;;;;;;5023973;28;20141;-84
2021/08/27 10:20:48;;;;;;;9.27;3.38;;;18.20;99.90;;;;;;5024064;28;20069;-84
2021/08/27 10:23:17;;;;;;;10.85;3.50;;;18.10;99.90;;;;;;5023521;28;20054;-84
2021/08/27 10:25:46;;;;;;;6.93;3.65;;;18.20;99.90;;;;;;5025053;28;20049;-84
2021/08/27 10:28:13;;;;;;;10.40;3.40;;;18.30;99.90;;;;;;5023852;28;20042;-82
2021/08/27 10:30:56;;;;;;;10.10;3.20;;;18.40;99.90;;;;;;5024084;28;20129;-82
2021/08/27 10:34:03;;;;;;;9.02;3.70;;;18.60;99.90;;;;;;5023957;28;20081;-83
2021/08/27 10:36:47;;;;;;;6.30;3.10;;;18.90;99.90;;;;;;5022384;28;20050;-82
2021/08/27 10:39:32;;;;;;;7.90;3.58;;;19.10;99.90;;;;;;5022201;28;20132;-83
2021/08/27 10:41:59;;;;;;;7.15;3.35;;;19.20;99.90;;;;;;5023287;28;20070;-83
2021/08/27 10:44:58;;;;;;;6.57;3.10;;;19.10;99.90;;;;;;5022783;28;20050;-83
2021/08/27 10:47:26;;;;;;;11.27;4.00;;;19.10;99.90;;;;;;5019316;28;20470;-86
2021/08/27 10:49:57;;;;;;;9.38;3.10;;;19.10;99.90;;;;;;5017724;28;20498;-82
2021/08/27 10:52:27;;;;;;;6.70;3.00;;;19.20;99.90;;;;;;5016448;28;20081;-83
2021/08/27 10:55:08;;;;;;;11.25;3.67;;;19.40;99.90;;;;;;5017357;28;20133;-83
2021/08/27 10:57:44;;;;;;;4.43;2.90;;;19.60;99.90;;;;;;5021134;28;20132;-83
2021/08/27 11:00:12;;;;;;;9.77;3.10;;;19.70;99.90;;;;;;5020298;28;20510;-82
2021/08/27 11:02:54;;;;;;;6.57;2.92;;;19.90;99.90;;;;;;5021462;28;20105;-83
2021/08/27 11:05:32;;;;;;;7.05;3.03;;;20.00;99.90;;;;;;5020681;28;20497;-83
2021/08/27 11:08:04;;;;;;;5.28;2.67;;;20.10;99.90;;;;;;5021397;28;20118;-82
2021/08/27 11:10:30;;;;;;;4.23;2.13;;;20.00;99.90;;;;;;5020959;28;20046;-83
2021/08/27 11:13:01;;;;;;;8.35;2.72;;;19.80;99.90;;;;;;5021962;28;20080;-81
2021/08/27 11:15:31;;;;;;;6.22;3.00;;;19.60;99.90;;;;;;5021729;28;20046;-82
2021/08/27 11:18:24;;;;;;;5.20;2.28;;;19.40;99.90;;;;;;5022793;28;20050;-83
2021/08/27 11:20:52;;;;;;;6.93;2.90;;;19.50;99.90;;;;;;5022653;28;20072;-82
2021/08/27 11:23:19;;;;;;;4.53;3.08;;;19.70;99.90;;;;;;5022467;28;20049;-81
2021/08/27 11:26:04;;;;;;;8.88;3.40;;;19.80;99.90;;;;;;5022170;28;20050;-81
2021/08/27 11:28:33;;;;;;;5.45;2.92;;;20.10;99.90;;;;;;5020761;28;20101;-82
2021/08/27 11:31:05;;;;;;;6.35;2.95;;;20.30;99.90;;;;;;5022643;28;20060;-82
2021/08/27 11:33:51;;;;;;;5.93;2.25;;;20.40;99.90;;;;;;5020536;28;20141;-81
2021/08/27 11:36:21;;;;;;;5.25;2.50;;;20.40;99.90;;;;;;5021607;28;20062;-82
2021/08/27 11:38:57;;;;;;;8.10;3.40;;;20.30;99.90;;;;;;5023098;28;20114;-82
2021/08/27 11:41:25;;;;;;;8.90;4.03;;;19.70;99.90;;;;;;5020358;28;20042;-82
2021/08/27 11:44:04;;;;;;;6.75;3.22;;;19.40;99.90;;;;;;5020890;28;20104;-82
2021/08/27 11:46:33;;;;;;;8.55;3.53;;;19.10;99.90;;;;;;5021153;28;20100;-82
2021/08/27 11:49:19;;;;;;;6.72;3.40;;;18.80;99.90;;;;;;5020773;28;20549;-82
2021/08/27 11:52:02;;;;;;;6.80;3.25;;;18.60;99.90;;;;;;5014631;28;20097;-82
2021/08/27 11:54:29;;;;;;;6.57;2.85;;;18.60;99.90;;;;;;5019280;28;20133;-83
2021/08/27 11:56:56;;;;;;;5.47;2.88;;;18.50;99.90;;;;;;5019404;28;20096;-82
2021/08/27 11:59:24;;;;;;;5.70;2.97;;;18.80;99.90;;;;;;5019530;28;20530;-83
2021/08/27 12:01:52;;;;;;;6.57;3.35;;;19.10;99.90;;;;;;5018618;28;20100;-82
2021/08/27 12:04:34;;;;;;;6.72;3.17;;;19.30;99.90;;;;;;5021547;28;20137;-83
2021/08/27 12:07:12;;;;;;;7.90;3.30;;;19.60;99.90;;;;;;5019593;28;20399;-84
2021/08/27 12:09:40;;;;;;;8.07;3.58;;;19.80;99.90;;;;;;5019756;28;20300;-82
2021/08/27 12:12:32;;;;;;;5.57;2.80;;;19.80;99.90;;;;;;5020974;28;20562;-84
2021/08/27 12:14:59;;;;;;;7.35;3.25;;;19.90;99.90;;;;;;5032657;23;20513;-77
2021/08/27 12:17:28;;;;;;;7.28;3.53;;;20.10;99.90;;;;;;5006230;28;20116;-75
2021/08/27 12:19:57;;;;;;;6.72;3.90;;;20.30;99.90;;;;;;5012480;28;20048;-76
2021/08/27 12:22:28;;;;;;;6.45;3.40;;;20.30;99.90;;;;;;5011843;28;20073;-75
2021/08/27 12:24:55;;;;;;;10.77;4.28;;;19.60;99.90;;;;;;5012188;28;20056;-75
2021/08/27 12:27:23;;;;;;;6.90;2.97;;;19.20;99.90;;;;;;5013092;28;20049;-75
2021/08/27 12:30:09;;;;;;;5.93;3.63;;;18.90;99.90;;;;;;5013220;28;20422;-75
2021/08/27 12:32:37;;;;;;;8.10;4.10;;;18.60;99.90;;;;;;5011752;28;20041;-75
2021/08/27 12:35:07;;;;;;;5.53;3.40;;;18.40;99.90;;;;;;5012222;28;20458;-75
2021/08/27 12:37:35;;;;;;;6.93;3.53;;;18.30;99.90;;;;;;5012430;28;20067;-76
2021/08/27 12:40:05;;;;;;;7.40;3.60;;;18.30;99.90;;;;;;5012872;28;20054;-75
2021/08/27 12:42:32;;;;;;;9.70;3.92;;;18.30;99.90;;;;;;5012360;28;20056;-75
2021/08/27 12:45:05;;;;;;;7.10;4.05;;;18.40;99.90;;;;;;5012035;28;20489;-75
2021/08/27 12:47:38;;;;;;;6.28;3.30;;;18.60;99.90;;;;;;5012553;28;20116;-76
2021/08/27 12:50:11;;;;;;;7.53;3.70;;;18.70;99.90;;;;;;5012810;28;20072;-76
2021/08/27 12:52:38;;;;;;;6.03;3.42;;;19.00;99.90;;;;;;5012147;28;20513;-78
2021/08/27 12:55:20;;;;;;;5.43;3.40;;;19.10;99.90;;;;;;5012201;28;20129;-76
2021/08/27 12:57:49;;;;;;;7.72;3.05;;;19.30;99.90;;;;;;5012374;28;20136;-76